PWSweather.com
Personal Weather Stations
Station Observations
SHAHALMS1
Eftra, Falkenberg, HA

EftraFalkenberg, HA

Lat: 56.85, Lon: 12.65

Elevation: 140

Station Type:

http://hem.passagen.se/risarp101

High Low Average
Temperature 45.9°F7.7°C 37.9°F3.3°C 39.4°F4.1°C
Dew Point 41.9°F5.5°C 35.8°F2.1°C 37.4°F3.0°C
Winds 11.7 mph 18.8 kmh Calm Calm 4.0 mph WSW6.4 kmh WSW
Wind Gusts 27.9 mph44.9 kmh -- 10.0 mph16.1 kmh
Humidity 94% 81% 92%
Pressure 29.30 in992.2 mb 29.15 in987.1 mb -
Precipitation 0.33 in8.4 mm - -
Hour Temp Dew Point Humidity Winds Wind Gusts Pressure Precip Precip Rate Daily Precip Total
12:00 AM 40.5°F4.7°C 38.6°F3.7°C 93% 6.9 mph S11.1 kmh S 16.5 mph26.6 kmh 29.21 in989.2 mb 0.00 in0.0 mm 0.00 in0.0 mm 0.00 in0.0 mm
12:15 AM 40.5°F4.7°C 38.6°F3.7°C 93% 6.0 mph S9.7 kmh S 16.5 mph26.6 kmh 29.21 in989.2 mb 0.00 in0.0 mm 0.00 in0.0 mm 0.00 in0.0 mm
12:30 AM 40.5°F4.7°C 38.6°F3.7°C 93% 5.8 mph S9.3 kmh S 14.0 mph22.5 kmh 29.21 in989.2 mb 0.00 in0.0 mm 0.00 in0.0 mm 0.00 in0.0 mm
12:45 AM 40.3°F4.6°C 38.4°F3.6°C 93% 6.3 mph S10.1 kmh S 12.2 mph19.6 kmh 29.21 in989.2 mb 0.05 in1.3 mm 0.20 in5.1 mm 0.05 in1.3 mm
01:00 AM 40.3°F4.6°C 38.4°F3.6°C 93% 6.6 mph S10.6 kmh S 19.7 mph31.7 kmh 29.21 in989.2 mb 0.05 in1.3 mm 0.00 in0.0 mm 0.05 in1.3 mm
01:15 AM 40.3°F4.6°C 38.4°F3.6°C 93% 6.9 mph SSW11.1 kmh SSW 15.4 mph24.8 kmh 29.21 in989.2 mb 0.05 in1.3 mm 0.00 in0.0 mm 0.05 in1.3 mm
01:30 AM 40.3°F4.6°C 38.7°F3.7°C 94% 6.9 mph S11.1 kmh S 16.5 mph26.6 kmh 29.21 in989.2 mb 0.05 in1.3 mm 0.00 in0.0 mm 0.05 in1.3 mm
01:45 AM 40.3°F4.6°C 38.7°F3.7°C 94% 6.4 mph S10.3 kmh S 14.3 mph23.0 kmh 29.21 in989.2 mb 0.00 in0.0 mm 0.00 in0.0 mm 0.05 in1.3 mm
02:00 AM 40.1°F4.5°C 38.5°F3.6°C 94% 6.3 mph S10.1 kmh S 12.2 mph19.6 kmh 29.21 in989.2 mb 0.00 in0.0 mm 0.00 in0.0 mm 0.05 in1.3 mm
02:15 AM 40.1°F4.5°C 38.5°F3.6°C 94% 5.9 mph SW9.5 kmh SW 12.2 mph19.6 kmh 29.21 in989.2 mb 0.00 in0.0 mm 0.00 in0.0 mm 0.05 in1.3 mm
02:30 AM 40.1°F4.5°C 38.5°F3.6°C 94% 3.2 mph WSW5.1 kmh WSW 9.3 mph15.0 kmh 29.21 in989.2 mb 0.00 in0.0 mm 0.00 in0.0 mm 0.05 in1.3 mm
02:45 AM 39.9°F4.4°C 38.1°F3.4°C 93% 3.7 mph W6.0 kmh W 9.7 mph15.6 kmh 29.21 in989.2 mb 0.00 in0.0 mm 0.00 in0.0 mm 0.05 in1.3 mm
03:00 AM 39.7°F4.3°C 37.9°F3.3°C 93% 4.4 mph W7.1 kmh W 9.3 mph15.0 kmh 29.21 in989.2 mb 0.00 in0.0 mm 0.00 in0.0 mm 0.05 in1.3 mm
03:15 AM 39.7°F4.3°C 37.9°F3.3°C 93% 2.7 mph WNW4.3 kmh WNW 9.7 mph15.6 kmh 29.21 in989.2 mb 0.00 in0.0 mm 0.00 in0.0 mm 0.05 in1.3 mm
03:30 AM 39.7°F4.3°C 37.9°F3.3°C 93% 2.6 mph NW4.2 kmh NW 8.6 mph13.8 kmh 29.21 in989.2 mb 0.05 in1.3 mm 0.20 in5.1 mm 0.09 in2.3 mm
03:40 AM 39.7°F4.3°C 38.2°F3.4°C 94% 2.6 mph W4.2 kmh W 3.2 mph5.1 kmh 29.21 in989.2 mb 0.00 in0.0 mm 0.00 in0.0 mm 0.05 in1.3 mm
03:41 AM 39.7°F4.3°C 38.2°F3.4°C 94% 1.3 mph W2.1 kmh W 3.2 mph5.1 kmh 29.21 in989.2 mb 0.05 in1.3 mm 3.00 in76.2 mm 0.09 in2.3 mm
03:42 AM 39.7°F4.3°C 38.2°F3.4°C 94% 2.6 mph NW4.2 kmh NW 6.4 mph10.3 kmh 29.21 in989.2 mb 0.05 in1.3 mm 0.00 in0.0 mm 0.09 in2.3 mm
03:43 AM 39.7°F4.3°C 38.2°F3.4°C 94% 3.5 mph NW5.6 kmh NW 7.5 mph12.1 kmh 29.21 in989.2 mb 0.05 in1.3 mm 0.00 in0.0 mm 0.09 in2.3 mm
03:44 AM 39.7°F4.3°C 38.2°F3.4°C 94% 3.5 mph NW5.6 kmh NW 7.5 mph12.1 kmh 29.21 in989.2 mb 0.05 in1.3 mm 0.00 in0.0 mm 0.09 in2.3 mm
03:45 AM 39.7°F4.3°C 38.2°F3.4°C 94% 3.4 mph NW5.5 kmh NW 7.5 mph12.1 kmh 29.21 in989.2 mb 0.05 in1.3 mm 0.00 in0.0 mm 0.09 in2.3 mm
03:46 AM 39.7°F4.3°C 38.2°F3.4°C 94% 2.9 mph NW4.7 kmh NW 7.5 mph12.1 kmh 29.21 in989.2 mb 0.05 in1.3 mm 0.00 in0.0 mm 0.09 in2.3 mm
03:47 AM 39.7°F4.3°C 38.2°F3.4°C 94% 2.8 mph NW4.5 kmh NW 7.5 mph12.1 kmh 29.21 in989.2 mb 0.05 in1.3 mm 0.00 in0.0 mm 0.09 in2.3 mm
03:48 AM 39.7°F4.3°C 38.2°F3.4°C 94% 3.0 mph NW4.8 kmh NW 7.5 mph12.1 kmh 29.21 in989.2 mb 0.05 in1.3 mm 0.00 in0.0 mm 0.09 in2.3 mm
03:49 AM 39.7°F4.3°C 38.2°F3.4°C 94% 3.3 mph NW5.3 kmh NW 7.5 mph12.1 kmh 29.21 in989.2 mb 0.05 in1.3 mm 0.00 in0.0 mm 0.09 in2.3 mm
03:50 AM 39.7°F4.3°C 38.2°F3.4°C 94% 3.1 mph NW5.0 kmh NW 7.5 mph12.1 kmh 29.21 in989.2 mb 0.05 in1.3 mm 0.00 in0.0 mm 0.09 in2.3 mm
03:51 AM 39.7°F4.3°C 38.2°F3.4°C 94% 3.7 mph NW6.0 kmh NW 7.5 mph12.1 kmh 29.21 in989.2 mb 0.05 in1.3 mm 0.00 in0.0 mm 0.09 in2.3 mm
03:52 AM 39.7°F4.3°C 38.2°F3.4°C 94% 3.2 mph NW5.1 kmh NW 7.5 mph12.1 kmh 29.21 in989.2 mb 0.05 in1.3 mm 0.00 in0.0 mm 0.09 in2.3 mm
03:53 AM 39.7°F4.3°C 38.2°F3.4°C 94% 3.2 mph NW5.1 kmh NW 7.9 mph12.7 kmh 29.21 in989.2 mb 0.05 in1.3 mm 0.00 in0.0 mm 0.09 in2.3 mm
03:54 AM 39.7°F4.3°C 38.2°F3.4°C 94% 3.2 mph NW5.1 kmh NW 7.9 mph12.7 kmh 29.21 in989.2 mb 0.05 in1.3 mm 0.00 in0.0 mm 0.09 in2.3 mm
03:55 AM 39.7°F4.3°C 38.2°F3.4°C 94% 3.6 mph NW5.8 kmh NW 9.3 mph15.0 kmh 29.21 in989.2 mb 0.05 in1.3 mm 0.00 in0.0 mm 0.09 in2.3 mm
03:56 AM 39.7°F4.3°C 38.2°F3.4°C 94% 4.2 mph NW6.8 kmh NW 9.3 mph15.0 kmh 29.21 in989.2 mb 0.05 in1.3 mm 0.00 in0.0 mm 0.09 in2.3 mm
03:57 AM 39.7°F4.3°C 38.2°F3.4°C 94% 4.4 mph NW7.1 kmh NW 9.3 mph15.0 kmh 29.21 in989.2 mb 0.05 in1.3 mm 0.00 in0.0 mm 0.09 in2.3 mm
03:58 AM 39.7°F4.3°C 38.2°F3.4°C 94% 4.1 mph NW6.6 kmh NW 9.3 mph15.0 kmh 29.21 in989.2 mb 0.05 in1.3 mm 0.00 in0.0 mm 0.09 in2.3 mm
03:59 AM 39.7°F4.3°C 38.2°F3.4°C 94% 4.3 mph NW6.9 kmh NW 9.7 mph15.6 kmh 29.21 in989.2 mb 0.05 in1.3 mm 0.00 in0.0 mm 0.09 in2.3 mm
04:00 AM 39.7°F4.3°C 38.2°F3.4°C 94% 4.6 mph NW7.4 kmh NW 9.7 mph15.6 kmh 29.21 in989.2 mb 0.05 in1.3 mm 0.00 in0.0 mm 0.09 in2.3 mm
04:01 AM 39.7°F4.3°C 38.2°F3.4°C 94% 4.2 mph NW6.8 kmh NW 9.7 mph15.6 kmh 29.21 in989.2 mb 0.05 in1.3 mm 0.00 in0.0 mm 0.09 in2.3 mm
04:02 AM 39.7°F4.3°C 38.2°F3.4°C 94% 4.5 mph NW7.2 kmh NW 9.7 mph15.6 kmh 29.21 in989.2 mb 0.05 in1.3 mm 0.00 in0.0 mm 0.09 in2.3 mm
04:03 AM 39.7°F4.3°C 38.2°F3.4°C 94% 4.5 mph NW7.2 kmh NW 9.7 mph15.6 kmh 29.21 in989.2 mb 0.05 in1.3 mm 0.00 in0.0 mm 0.09 in2.3 mm
04:04 AM 39.7°F4.3°C 38.2°F3.4°C 94% 4.2 mph NW6.8 kmh NW 9.7 mph15.6 kmh 29.21 in989.2 mb 0.05 in1.3 mm 0.00 in0.0 mm 0.09 in2.3 mm
04:05 AM 39.7°F4.3°C 38.2°F3.4°C 94% 3.5 mph NW5.6 kmh NW 9.7 mph15.6 kmh 29.21 in989.2 mb 0.05 in1.3 mm 0.00 in0.0 mm 0.09 in2.3 mm
04:06 AM 39.6°F4.2°C 38.0°F3.3°C 94% 3.2 mph NW5.1 kmh NW 9.7 mph15.6 kmh 29.21 in989.2 mb 0.05 in1.3 mm 0.00 in0.0 mm 0.09 in2.3 mm
04:07 AM 39.6°F4.2°C 38.0°F3.3°C 94% 2.5 mph NW4.0 kmh NW 9.7 mph15.6 kmh 29.24 in990.2 mb 0.05 in1.3 mm 0.00 in0.0 mm 0.09 in2.3 mm
04:08 AM 39.6°F4.2°C 38.0°F3.3°C 94% 2.3 mph NW3.7 kmh NW 9.7 mph15.6 kmh 29.24 in990.2 mb 0.05 in1.3 mm 0.00 in0.0 mm 0.09 in2.3 mm
04:09 AM 39.6°F4.2°C 38.0°F3.3°C 94% 1.5 mph NW2.4 kmh NW 6.1 mph9.8 kmh 29.24 in990.2 mb 0.05 in1.3 mm 0.00 in0.0 mm 0.09 in2.3 mm
04:10 AM 39.6°F4.2°C 38.0°F3.3°C 94% 1.2 mph NW1.9 kmh NW 6.1 mph9.8 kmh 29.24 in990.2 mb 0.05 in1.3 mm 0.00 in0.0 mm 0.09 in2.3 mm
04:11 AM 39.6°F4.2°C 38.0°F3.3°C 94% 1.0 mph NW1.6 kmh NW 6.1 mph9.8 kmh 29.24 in990.2 mb 0.05 in1.3 mm 0.00 in0.0 mm 0.09 in2.3 mm
04:12 AM 39.6°F4.2°C 38.0°F3.3°C 94% 0.7 mph NNW1.1 kmh NNW 6.1 mph9.8 kmh 29.24 in990.2 mb 0.05 in1.3 mm 0.00 in0.0 mm 0.09 in2.3 mm
04:13 AM 39.6°F4.2°C 38.0°F3.3°C 94% 0.2 mph NW0.3 kmh NW 2.5 mph4.0 kmh 29.24 in990.2 mb 0.05 in1.3 mm 0.00 in0.0 mm 0.09 in2.3 mm
04:14 AM 39.6°F4.2°C 38.0°F3.3°C 94% Calm Calm -- 29.24 in990.2 mb 0.05 in1.3 mm 0.00 in0.0 mm 0.09 in2.3 mm
04:15 AM 39.6°F4.2°C 38.0°F3.3°C 94% 0.2 mph W0.3 kmh W 2.1 mph3.4 kmh 29.24 in990.2 mb 0.05 in1.3 mm 0.00 in0.0 mm 0.09 in2.3 mm
04:16 AM 39.6°F4.2°C 38.0°F3.3°C 94% 0.5 mph W0.8 kmh W 3.6 mph5.8 kmh 29.24 in990.2 mb 0.05 in1.3 mm 0.00 in0.0 mm 0.09 in2.3 mm
04:17 AM 39.6°F4.2°C 38.0°F3.3°C 94% 0.9 mph W1.4 kmh W 5.4 mph8.7 kmh 29.24 in990.2 mb 0.05 in1.3 mm 0.00 in0.0 mm 0.09 in2.3 mm
04:18 AM 39.6°F4.2°C 38.0°F3.3°C 94% 0.9 mph W1.4 kmh W 5.4 mph8.7 kmh 29.24 in990.2 mb 0.05 in1.3 mm 0.00 in0.0 mm 0.09 in2.3 mm
04:19 AM 39.7°F4.3°C 38.2°F3.4°C 94% 1.1 mph W1.8 kmh W 5.4 mph8.7 kmh 29.24 in990.2 mb 0.05 in1.3 mm 0.00 in0.0 mm 0.09 in2.3 mm
04:20 AM 39.7°F4.3°C 38.2°F3.4°C 94% 1.4 mph W2.3 kmh W 5.4 mph8.7 kmh 29.24 in990.2 mb 0.05 in1.3 mm 0.00 in0.0 mm 0.09 in2.3 mm
04:21 AM 39.7°F4.3°C 38.2°F3.4°C 94% 1.9 mph WNW3.1 kmh WNW 6.8 mph10.9 kmh 29.24 in990.2 mb 0.00 in0.0 mm 0.00 in0.0 mm 0.09 in2.3 mm
04:22 AM 39.7°F4.3°C 38.2°F3.4°C 94% 1.7 mph WNW2.7 kmh WNW 6.8 mph10.9 kmh 29.27 in991.2 mb 0.00 in0.0 mm 0.00 in0.0 mm 0.09 in2.3 mm
04:23 AM 39.7°F4.3°C 38.2°F3.4°C 94% 2.1 mph WNW3.4 kmh WNW 6.8 mph10.9 kmh 29.27 in991.2 mb 0.00 in0.0 mm 0.00 in0.0 mm 0.09 in2.3 mm
04:24 AM 39.6°F4.2°C 38.0°F3.3°C 94% 2.6 mph WNW4.2 kmh WNW 6.8 mph10.9 kmh 29.27 in991.2 mb 0.00 in0.0 mm 0.00 in0.0 mm 0.09 in2.3 mm
04:25 AM 39.6°F4.2°C 38.0°F3.3°C 94% 3.2 mph WNW5.1 kmh WNW 10.4 mph16.7 kmh 29.27 in991.2 mb 0.00 in0.0 mm 0.00 in0.0 mm 0.09 in2.3 mm
04:26 AM 39.6°F4.2°C 38.0°F3.3°C 94% 3.2 mph WNW5.1 kmh WNW 10.4 mph16.7 kmh 29.27 in991.2 mb 0.00 in0.0 mm 0.00 in0.0 mm 0.09 in2.3 mm
04:27 AM 39.6°F4.2°C 38.0°F3.3°C 94% 3.3 mph WNW5.3 kmh WNW 10.4 mph16.7 kmh 29.27 in991.2 mb 0.00 in0.0 mm 0.00 in0.0 mm 0.09 in2.3 mm
04:28 AM 39.6°F4.2°C 38.0°F3.3°C 94% 3.6 mph WNW5.8 kmh WNW 10.4 mph16.7 kmh 29.27 in991.2 mb 0.00 in0.0 mm 0.00 in0.0 mm 0.09 in2.3 mm
04:29 AM 39.6°F4.2°C 38.0°F3.3°C 94% 3.6 mph WNW5.8 kmh WNW 10.4 mph16.7 kmh 29.27 in991.2 mb 0.00 in0.0 mm 0.00 in0.0 mm 0.09 in2.3 mm
04:30 AM 39.6°F4.2°C 38.0°F3.3°C 94% 3.9 mph WNW6.3 kmh WNW 10.4 mph16.7 kmh 29.27 in991.2 mb 0.00 in0.0 mm 0.00 in0.0 mm 0.09 in2.3 mm
04:31 AM 39.6°F4.2°C 38.0°F3.3°C 94% 3.3 mph WNW5.3 kmh WNW 10.4 mph16.7 kmh 29.27 in991.2 mb 0.05 in1.3 mm 3.00 in76.2 mm 0.09 in2.3 mm
04:32 AM 39.6°F4.2°C 38.0°F3.3°C 94% 3.6 mph WNW5.8 kmh WNW 10.4 mph16.7 kmh 29.27 in991.2 mb 0.05 in1.3 mm 0.00 in0.0 mm 0.09 in2.3 mm
04:33 AM 39.6°F4.2°C 38.0°F3.3°C 94% 4.0 mph WNW6.4 kmh WNW 10.4 mph16.7 kmh 29.27 in991.2 mb 0.05 in1.3 mm 0.00 in0.0 mm 0.09 in2.3 mm
04:34 AM 39.6°F4.2°C 38.0°F3.3°C 94% 3.5 mph WNW5.6 kmh WNW 10.4 mph16.7 kmh 29.27 in991.2 mb 0.05 in1.3 mm 0.00 in0.0 mm 0.09 in2.3 mm
04:35 AM 39.6°F4.2°C 38.0°F3.3°C 94% 3.6 mph WNW5.8 kmh WNW 10.4 mph16.7 kmh 29.27 in991.2 mb 0.05 in1.3 mm 0.00 in0.0 mm 0.09 in2.3 mm
04:36 AM 39.6°F4.2°C 38.0°F3.3°C 94% 3.5 mph WNW5.6 kmh WNW 7.5 mph12.1 kmh 29.27 in991.2 mb 0.05 in1.3 mm 0.00 in0.0 mm 0.09 in2.3 mm
04:37 AM 39.6°F4.2°C 38.0°F3.3°C 94% 3.4 mph W5.5 kmh W 7.5 mph12.1 kmh 29.27 in991.2 mb 0.05 in1.3 mm 0.00 in0.0 mm 0.09 in2.3 mm
04:38 AM 39.6°F4.2°C 38.0°F3.3°C 94% 3.6 mph W5.8 kmh W 7.5 mph12.1 kmh 29.27 in991.2 mb 0.05 in1.3 mm 0.00 in0.0 mm 0.09 in2.3 mm
04:39 AM 39.6°F4.2°C 38.0°F3.3°C 94% 3.6 mph WNW5.8 kmh WNW 7.5 mph12.1 kmh 29.27 in991.2 mb 0.05 in1.3 mm 0.00 in0.0 mm 0.09 in2.3 mm
04:40 AM 39.4°F4.1°C 37.8°F3.2°C 94% 4.5 mph W7.2 kmh W 16.5 mph26.6 kmh 29.27 in991.2 mb 0.05 in1.3 mm 0.00 in0.0 mm 0.09 in2.3 mm
04:41 AM 39.4°F4.1°C 37.8°F3.2°C 94% 5.3 mph WNW8.5 kmh WNW 16.5 mph26.6 kmh 29.27 in991.2 mb 0.00 in0.0 mm 0.00 in0.0 mm 0.09 in2.3 mm
04:42 AM 39.4°F4.1°C 37.8°F3.2°C 94% 6.2 mph WNW10.0 kmh WNW 16.5 mph26.6 kmh 29.27 in991.2 mb 0.00 in0.0 mm 0.00 in0.0 mm 0.09 in2.3 mm
04:43 AM 39.4°F4.1°C 37.8°F3.2°C 94% 7.1 mph WNW11.4 kmh WNW 17.5 mph28.2 kmh 29.27 in991.2 mb 0.00 in0.0 mm 0.00 in0.0 mm 0.09 in2.3 mm
04:44 AM 39.4°F4.1°C 37.8°F3.2°C 94% 7.9 mph WNW12.7 kmh WNW 17.5 mph28.2 kmh 29.27 in991.2 mb 0.00 in0.0 mm 0.00 in0.0 mm 0.09 in2.3 mm
04:45 AM 39.4°F4.1°C 37.8°F3.2°C 94% 8.5 mph WNW13.7 kmh WNW 17.5 mph28.2 kmh 29.27 in991.2 mb 0.00 in0.0 mm 0.00 in0.0 mm 0.09 in2.3 mm
04:46 AM 39.2°F4.0°C 37.6°F3.1°C 94% 8.6 mph WNW13.8 kmh WNW 17.5 mph28.2 kmh 29.27 in991.2 mb 0.00 in0.0 mm 0.00 in0.0 mm 0.09 in2.3 mm
04:47 AM 39.2°F4.0°C 37.6°F3.1°C 94% 9.1 mph WNW14.6 kmh WNW 17.5 mph28.2 kmh 29.27 in991.2 mb 0.00 in0.0 mm 0.00 in0.0 mm 0.09 in2.3 mm
04:48 AM 39.2°F4.0°C 37.6°F3.1°C 94% 8.8 mph WNW14.2 kmh WNW 17.5 mph28.2 kmh 29.27 in991.2 mb 0.00 in0.0 mm 0.00 in0.0 mm 0.09 in2.3 mm
04:49 AM 39.2°F4.0°C 37.6°F3.1°C 94% 9.5 mph WNW15.3 kmh WNW 17.5 mph28.2 kmh 29.27 in991.2 mb 0.00 in0.0 mm 0.00 in0.0 mm 0.09 in2.3 mm
04:50 AM 39.2°F4.0°C 37.3°F2.9°C 93% 9.2 mph WNW14.8 kmh WNW 17.5 mph28.2 kmh 29.27 in991.2 mb 0.00 in0.0 mm 0.00 in0.0 mm 0.09 in2.3 mm
04:51 AM 39.0°F3.9°C 37.2°F2.9°C 93% 9.4 mph WNW15.1 kmh WNW 17.5 mph28.2 kmh 29.27 in991.2 mb 0.00 in0.0 mm 0.00 in0.0 mm 0.09 in2.3 mm
04:52 AM 39.0°F3.9°C 37.2°F2.9°C 93% 9.1 mph WNW14.6 kmh WNW 17.5 mph28.2 kmh 29.24 in990.2 mb 0.00 in0.0 mm 0.00 in0.0 mm 0.09 in2.3 mm
04:53 AM 39.0°F3.9°C 37.2°F2.9°C 93% 8.4 mph WNW13.5 kmh WNW 14.0 mph22.5 kmh 29.24 in990.2 mb 0.00 in0.0 mm 0.00 in0.0 mm 0.09 in2.3 mm
04:54 AM 39.0°F3.9°C 37.2°F2.9°C 93% 8.3 mph WNW13.4 kmh WNW 14.0 mph22.5 kmh 29.24 in990.2 mb 0.00 in0.0 mm 0.00 in0.0 mm 0.09 in2.3 mm
04:55 AM 39.0°F3.9°C 37.2°F2.9°C 93% 7.6 mph WNW12.2 kmh WNW 14.0 mph22.5 kmh 29.24 in990.2 mb 0.00 in0.0 mm 0.00 in0.0 mm 0.09 in2.3 mm
04:56 AM 39.0°F3.9°C 37.2°F2.9°C 93% 7.1 mph WNW11.4 kmh WNW 14.0 mph22.5 kmh 29.24 in990.2 mb 0.00 in0.0 mm 0.00 in0.0 mm 0.09 in2.3 mm
04:57 AM 39.0°F3.9°C 37.2°F2.9°C 93% 6.7 mph WNW10.8 kmh WNW 14.0 mph22.5 kmh 29.24 in990.2 mb 0.00 in0.0 mm 0.00 in0.0 mm 0.09 in2.3 mm
04:58 AM 38.8°F3.8°C 37.0°F2.8°C 93% 7.6 mph WNW12.2 kmh WNW 19.0 mph30.6 kmh 29.24 in990.2 mb 0.00 in0.0 mm 0.00 in0.0 mm 0.09 in2.3 mm
04:59 AM 38.8°F3.8°C 37.0°F2.8°C 93% 7.6 mph WNW12.2 kmh WNW 19.0 mph30.6 kmh 29.24 in990.2 mb 0.00 in0.0 mm 0.00 in0.0 mm 0.09 in2.3 mm
05:00 AM 38.8°F3.8°C 37.0°F2.8°C 93% 7.3 mph NW11.7 kmh NW 19.0 mph30.6 kmh 29.24 in990.2 mb 0.00 in0.0 mm 0.00 in0.0 mm 0.09 in2.3 mm
05:01 AM 38.8°F3.8°C 37.0°F2.8°C 93% 7.1 mph WNW11.4 kmh WNW 19.0 mph30.6 kmh 29.24 in990.2 mb 0.00 in0.0 mm 0.00 in0.0 mm 0.09 in2.3 mm
05:02 AM 38.8°F3.8°C 37.0°F2.8°C 93% 6.7 mph WNW10.8 kmh WNW 19.0 mph30.6 kmh 29.24 in990.2 mb 0.00 in0.0 mm 0.00 in0.0 mm 0.09 in2.3 mm
05:03 AM 38.8°F3.8°C 37.0°F2.8°C 93% 6.3 mph WNW10.1 kmh WNW 19.0 mph30.6 kmh 29.24 in990.2 mb 0.00 in0.0 mm 0.00 in0.0 mm 0.09 in2.3 mm
05:04 AM 38.8°F3.8°C 37.3°F2.9°C 94% 6.1 mph NW9.8 kmh NW 19.0 mph30.6 kmh 29.24 in990.2 mb 0.00 in0.0 mm 0.00 in0.0 mm 0.09 in2.3 mm
05:05 AM 38.8°F3.8°C 37.3°F2.9°C 94% 6.6 mph WNW10.6 kmh WNW 19.0 mph30.6 kmh 29.24 in990.2 mb 0.00 in0.0 mm 0.00 in0.0 mm 0.09 in2.3 mm
05:06 AM 38.8°F3.8°C 37.3°F2.9°C 94% 6.4 mph WNW10.3 kmh WNW 19.0 mph30.6 kmh 29.24 in990.2 mb 0.00 in0.0 mm 0.00 in0.0 mm 0.09 in2.3 mm
05:07 AM 38.8°F3.8°C 37.3°F2.9°C 94% 6.2 mph WNW10.0 kmh WNW 19.0 mph30.6 kmh 29.24 in990.2 mb 0.00 in0.0 mm 0.00 in0.0 mm 0.09 in2.3 mm
05:08 AM 38.8°F3.8°C 37.3°F2.9°C 94% 5.5 mph WNW8.9 kmh WNW 12.2 mph19.6 kmh 29.24 in990.2 mb 0.00 in0.0 mm 0.00 in0.0 mm 0.09 in2.3 mm
05:09 AM 38.8°F3.8°C 37.3°F2.9°C 94% 5.3 mph WNW8.5 kmh WNW 12.2 mph19.6 kmh 29.24 in990.2 mb 0.00 in0.0 mm 0.00 in0.0 mm 0.09 in2.3 mm
05:10 AM 38.8°F3.8°C 37.3°F2.9°C 94% 4.9 mph WNW7.9 kmh WNW 12.2 mph19.6 kmh 29.24 in990.2 mb 0.00 in0.0 mm 0.00 in0.0 mm 0.09 in2.3 mm
05:11 AM 38.8°F3.8°C 37.3°F2.9°C 94% 4.5 mph NW7.2 kmh NW 12.2 mph19.6 kmh 29.24 in990.2 mb 0.00 in0.0 mm 0.00 in0.0 mm 0.09 in2.3 mm
05:12 AM 38.8°F3.8°C 37.3°F2.9°C 94% 4.6 mph NW7.4 kmh NW 12.2 mph19.6 kmh 29.24 in990.2 mb 0.00 in0.0 mm 0.00 in0.0 mm 0.09 in2.3 mm
05:13 AM 38.8°F3.8°C 37.3°F2.9°C 94% 4.7 mph NW7.6 kmh NW 12.2 mph19.6 kmh 29.24 in990.2 mb 0.00 in0.0 mm 0.00 in0.0 mm 0.09 in2.3 mm
05:14 AM 38.8°F3.8°C 37.3°F2.9°C 94% 4.4 mph WNW7.1 kmh WNW 12.2 mph19.6 kmh 29.24 in990.2 mb 0.00 in0.0 mm 0.00 in0.0 mm 0.09 in2.3 mm
05:15 AM 38.8°F3.8°C 37.3°F2.9°C 94% 3.5 mph NW5.6 kmh NW 9.3 mph15.0 kmh 29.24 in990.2 mb 0.00 in0.0 mm 0.00 in0.0 mm 0.09 in2.3 mm
05:16 AM 38.8°F3.8°C 37.3°F2.9°C 94% 3.9 mph WNW6.3 kmh WNW 9.3 mph15.0 kmh 29.24 in990.2 mb 0.00 in0.0 mm 0.00 in0.0 mm 0.09 in2.3 mm
05:17 AM 38.7°F3.7°C 37.1°F2.8°C 94% 4.3 mph NW6.9 kmh NW 9.7 mph15.6 kmh 29.24 in990.2 mb 0.00 in0.0 mm 0.00 in0.0 mm 0.09 in2.3 mm
05:18 AM 38.7°F3.7°C 37.1°F2.8°C 94% 4.2 mph WNW6.8 kmh WNW 9.7 mph15.6 kmh 29.24 in990.2 mb 0.00 in0.0 mm 0.00 in0.0 mm 0.09 in2.3 mm
05:19 AM 38.7°F3.7°C 37.1°F2.8°C 94% 4.2 mph WNW6.8 kmh WNW 9.7 mph15.6 kmh 29.24 in990.2 mb 0.00 in0.0 mm 0.00 in0.0 mm 0.09 in2.3 mm
05:20 AM 38.7°F3.7°C 37.1°F2.8°C 94% 4.3 mph WNW6.9 kmh WNW 9.7 mph15.6 kmh 29.24 in990.2 mb 0.00 in0.0 mm 0.00 in0.0 mm 0.09 in2.3 mm
05:21 AM 38.7°F3.7°C 37.1°F2.8°C 94% 4.2 mph WNW6.8 kmh WNW 9.7 mph15.6 kmh 29.24 in990.2 mb 0.00 in0.0 mm 0.00 in0.0 mm 0.09 in2.3 mm
05:22 AM 38.7°F3.7°C 37.1°F2.8°C 94% 4.6 mph WNW7.4 kmh WNW 10.0 mph16.1 kmh 29.24 in990.2 mb 0.00 in0.0 mm 0.00 in0.0 mm 0.09 in2.3 mm
05:23 AM 38.7°F3.7°C 37.1°F2.8°C 94% 5.1 mph WNW8.2 kmh WNW 10.4 mph16.7 kmh 29.24 in990.2 mb 0.00 in0.0 mm 0.00 in0.0 mm 0.09 in2.3 mm
05:24 AM 38.7°F3.7°C 37.1°F2.8°C 94% 5.1 mph WNW8.2 kmh WNW 10.4 mph16.7 kmh 29.24 in990.2 mb 0.00 in0.0 mm 0.00 in0.0 mm 0.09 in2.3 mm
05:25 AM 38.7°F3.7°C 37.1°F2.8°C 94% 5.8 mph WNW9.3 kmh WNW 10.4 mph16.7 kmh 29.24 in990.2 mb 0.00 in0.0 mm 0.00 in0.0 mm 0.09 in2.3 mm
05:26 AM 38.7°F3.7°C 37.1°F2.8°C 94% 5.8 mph WNW9.3 kmh WNW 10.4 mph16.7 kmh 29.24 in990.2 mb 0.00 in0.0 mm 0.00 in0.0 mm 0.09 in2.3 mm
05:27 AM 38.7°F3.7°C 37.1°F2.8°C 94% 5.7 mph W9.2 kmh W 10.4 mph16.7 kmh 29.24 in990.2 mb 0.00 in0.0 mm 0.00 in0.0 mm 0.09 in2.3 mm
05:28 AM 38.7°F3.7°C 37.1°F2.8°C 94% 5.6 mph W9.0 kmh W 10.4 mph16.7 kmh 29.24 in990.2 mb 0.00 in0.0 mm 0.00 in0.0 mm 0.09 in2.3 mm
05:29 AM 38.7°F3.7°C 37.1°F2.8°C 94% 5.9 mph W9.5 kmh W 10.4 mph16.7 kmh 29.24 in990.2 mb 0.00 in0.0 mm 0.00 in0.0 mm 0.09 in2.3 mm
05:30 AM 38.7°F3.7°C 37.1°F2.8°C 94% 6.0 mph W9.7 kmh W 10.4 mph16.7 kmh 29.24 in990.2 mb 0.00 in0.0 mm 0.00 in0.0 mm 0.09 in2.3 mm
05:31 AM 38.7°F3.7°C 37.1°F2.8°C 94% 6.4 mph W10.3 kmh W 10.4 mph16.7 kmh 29.24 in990.2 mb 0.00 in0.0 mm 0.00 in0.0 mm 0.09 in2.3 mm
05:32 AM 38.7°F3.7°C 37.1°F2.8°C 94% 6.1 mph W9.8 kmh W 10.4 mph16.7 kmh 29.24 in990.2 mb 0.00 in0.0 mm 0.00 in0.0 mm 0.09 in2.3 mm
05:33 AM 38.7°F3.7°C 37.1°F2.8°C 94% 6.2 mph W10.0 kmh W 10.4 mph16.7 kmh 29.24 in990.2 mb 0.00 in0.0 mm 0.00 in0.0 mm 0.09 in2.3 mm
05:34 AM 38.5°F3.6°C 36.6°F2.6°C 93% 6.2 mph W10.0 kmh W 10.0 mph16.1 kmh 29.24 in990.2 mb 0.00 in0.0 mm 0.00 in0.0 mm 0.09 in2.3 mm
05:35 AM 38.5°F3.6°C 36.6°F2.6°C 93% 6.1 mph W9.8 kmh W 10.0 mph16.1 kmh 29.24 in990.2 mb 0.00 in0.0 mm 0.00 in0.0 mm 0.09 in2.3 mm
05:36 AM 38.5°F3.6°C 36.6°F2.6°C 93% 6.2 mph W10.0 kmh W 10.0 mph16.1 kmh 29.24 in990.2 mb 0.00 in0.0 mm 0.00 in0.0 mm 0.09 in2.3 mm
05:37 AM 38.5°F3.6°C 36.6°F2.6°C 93% 6.4 mph W10.3 kmh W 10.0 mph16.1 kmh 29.27 in991.2 mb 0.00 in0.0 mm 0.00 in0.0 mm 0.09 in2.3 mm
05:38 AM 38.5°F3.6°C 36.6°F2.6°C 93% 6.7 mph W10.8 kmh W 11.1 mph17.9 kmh 29.27 in991.2 mb 0.00 in0.0 mm 0.00 in0.0 mm 0.09 in2.3 mm
05:39 AM 38.5°F3.6°C 36.6°F2.6°C 93% 6.4 mph W10.3 kmh W 11.1 mph17.9 kmh 29.27 in991.2 mb 0.00 in0.0 mm 0.00 in0.0 mm 0.09 in2.3 mm
05:40 AM 38.5°F3.6°C 36.6°F2.6°C 93% 6.7 mph W10.8 kmh W 11.1 mph17.9 kmh 29.27 in991.2 mb 0.00 in0.0 mm 0.00 in0.0 mm 0.09 in2.3 mm
05:41 AM 38.5°F3.6°C 36.6°F2.6°C 93% 6.6 mph W10.6 kmh W 11.1 mph17.9 kmh 29.27 in991.2 mb 0.00 in0.0 mm 0.00 in0.0 mm 0.09 in2.3 mm
05:42 AM 38.5°F3.6°C 36.6°F2.6°C 93% 6.5 mph W10.5 kmh W 11.1 mph17.9 kmh 29.27 in991.2 mb 0.00 in0.0 mm 0.00 in0.0 mm 0.09 in2.3 mm
05:43 AM 38.5°F3.6°C 36.6°F2.6°C 93% 6.5 mph WNW10.5 kmh WNW 11.1 mph17.9 kmh 29.27 in991.2 mb 0.00 in0.0 mm 0.00 in0.0 mm 0.09 in2.3 mm
05:44 AM 38.3°F3.5°C 36.5°F2.5°C 93% 7.1 mph W11.4 kmh W 12.5 mph20.1 kmh 29.27 in991.2 mb 0.00 in0.0 mm 0.00 in0.0 mm 0.09 in2.3 mm
05:45 AM 38.3°F3.5°C 36.5°F2.5°C 93% 7.2 mph WNW11.6 kmh WNW 12.5 mph20.1 kmh 29.27 in991.2 mb 0.00 in0.0 mm 0.00 in0.0 mm 0.09 in2.3 mm
05:46 AM 38.3°F3.5°C 36.5°F2.5°C 93% 7.0 mph WNW11.3 kmh WNW 12.5 mph20.1 kmh 29.27 in991.2 mb 0.00 in0.0 mm 0.00 in0.0 mm 0.09 in2.3 mm
05:47 AM 38.3°F3.5°C 36.5°F2.5°C 93% 7.0 mph WNW11.3 kmh WNW 12.5 mph20.1 kmh 29.27 in991.2 mb 0.00 in0.0 mm 0.00 in0.0 mm 0.09 in2.3 mm
05:48 AM 38.3°F3.5°C 36.5°F2.5°C 93% 7.0 mph WNW11.3 kmh WNW 12.5 mph20.1 kmh 29.27 in991.2 mb 0.00 in0.0 mm 0.00 in0.0 mm 0.09 in2.3 mm
05:49 AM 38.3°F3.5°C 36.5°F2.5°C 93% 6.8 mph W10.9 kmh W 12.5 mph20.1 kmh 29.27 in991.2 mb 0.00 in0.0 mm 0.00 in0.0 mm 0.09 in2.3 mm
05:50 AM 38.3°F3.5°C 36.5°F2.5°C 93% 7.0 mph WNW11.3 kmh WNW 12.5 mph20.1 kmh 29.27 in991.2 mb 0.00 in0.0 mm 0.00 in0.0 mm 0.09 in2.3 mm
05:51 AM 38.3°F3.5°C 36.5°F2.5°C 93% 6.9 mph W11.1 kmh W 12.5 mph20.1 kmh 29.27 in991.2 mb 0.00 in0.0 mm 0.00 in0.0 mm 0.09 in2.3 mm
05:52 AM 38.3°F3.5°C 36.5°F2.5°C 93% 6.5 mph W10.5 kmh W 12.5 mph20.1 kmh 29.27 in991.2 mb 0.00 in0.0 mm 0.00 in0.0 mm 0.09 in2.3 mm
05:53 AM 38.3°F3.5°C 36.5°F2.5°C 93% 6.8 mph W10.9 kmh W 12.5 mph20.1 kmh 29.27 in991.2 mb 0.00 in0.0 mm 0.00 in0.0 mm 0.09 in2.3 mm
05:54 AM 38.3°F3.5°C 36.5°F2.5°C 93% 6.2 mph W10.0 kmh W 11.8 mph19.0 kmh 29.27 in991.2 mb 0.00 in0.0 mm 0.00 in0.0 mm 0.09 in2.3 mm
05:55 AM 38.3°F3.5°C 36.5°F2.5°C 93% 5.9 mph W9.5 kmh W 11.8 mph19.0 kmh 29.27 in991.2 mb 0.00 in0.0 mm 0.00 in0.0 mm 0.09 in2.3 mm
05:56 AM 38.3°F3.5°C 36.5°F2.5°C 93% 6.2 mph W10.0 kmh W 11.8 mph19.0 kmh 29.27 in991.2 mb 0.00 in0.0 mm 0.00 in0.0 mm 0.09 in2.3 mm
05:57 AM 38.3°F3.5°C 36.5°F2.5°C 93% 6.1 mph W9.8 kmh W 11.8 mph19.0 kmh 29.27 in991.2 mb 0.00 in0.0 mm 0.00 in0.0 mm 0.09 in2.3 mm
05:58 AM 38.3°F3.5°C 36.5°F2.5°C 93% 5.7 mph W9.2 kmh W 10.4 mph16.7 kmh 29.27 in991.2 mb 0.00 in0.0 mm 0.00 in0.0 mm 0.09 in2.3 mm
05:59 AM 38.3°F3.5°C 36.5°F2.5°C 93% 5.7 mph W9.2 kmh W 10.4 mph16.7 kmh 29.27 in991.2 mb 0.00 in0.0 mm 0.00 in0.0 mm 0.09 in2.3 mm
06:00 AM 38.3°F3.5°C 36.5°F2.5°C 93% 5.7 mph W9.2 kmh W 10.4 mph16.7 kmh 29.27 in991.2 mb 0.00 in0.0 mm 0.00 in0.0 mm 0.09 in2.3 mm
06:01 AM 38.3°F3.5°C 36.5°F2.5°C 93% 5.4 mph W8.7 kmh W 10.4 mph16.7 kmh 29.27 in991.2 mb 0.00 in0.0 mm 0.00 in0.0 mm 0.09 in2.3 mm
06:02 AM 38.3°F3.5°C 36.5°F2.5°C 93% 5.2 mph W8.4 kmh W 10.4 mph16.7 kmh 29.27 in991.2 mb 0.00 in0.0 mm 0.00 in0.0 mm 0.09 in2.3 mm
06:03 AM 38.3°F3.5°C 36.5°F2.5°C 93% 4.3 mph W6.9 kmh W 9.7 mph15.6 kmh 29.27 in991.2 mb 0.00 in0.0 mm 0.00 in0.0 mm 0.09 in2.3 mm
06:04 AM 38.3°F3.5°C 36.5°F2.5°C 93% 3.9 mph W6.3 kmh W 9.7 mph15.6 kmh 29.27 in991.2 mb 0.00 in0.0 mm 0.00 in0.0 mm 0.09 in2.3 mm
06:05 AM 38.3°F3.5°C 36.5°F2.5°C 93% 3.8 mph W6.1 kmh W 9.7 mph15.6 kmh 29.27 in991.2 mb 0.00 in0.0 mm 0.00 in0.0 mm 0.09 in2.3 mm
06:06 AM 38.3°F3.5°C 36.5°F2.5°C 93% 4.0 mph W6.4 kmh W 12.2 mph19.6 kmh 29.27 in991.2 mb 0.00 in0.0 mm 0.00 in0.0 mm 0.09 in2.3 mm
06:07 AM 38.3°F3.5°C 36.5°F2.5°C 93% 4.1 mph W6.6 kmh W 12.2 mph19.6 kmh 29.27 in991.2 mb 0.00 in0.0 mm 0.00 in0.0 mm 0.09 in2.3 mm
06:08 AM 38.3°F3.5°C 36.5°F2.5°C 93% 4.1 mph W6.6 kmh W 12.2 mph19.6 kmh 29.27 in991.2 mb 0.00 in0.0 mm 0.00 in0.0 mm 0.09 in2.3 mm
06:09 AM 38.3°F3.5°C 36.5°F2.5°C 93% 4.0 mph W6.4 kmh W 12.2 mph19.6 kmh 29.27 in991.2 mb 0.00 in0.0 mm 0.00 in0.0 mm 0.09 in2.3 mm
06:10 AM 38.3°F3.5°C 36.5°F2.5°C 93% 3.8 mph W6.1 kmh W 12.2 mph19.6 kmh 29.27 in991.2 mb 0.00 in0.0 mm 0.00 in0.0 mm 0.09 in2.3 mm
06:11 AM 38.3°F3.5°C 36.5°F2.5°C 93% 4.1 mph WNW6.6 kmh WNW 12.2 mph19.6 kmh 29.27 in991.2 mb 0.00 in0.0 mm 0.00 in0.0 mm 0.09 in2.3 mm
06:12 AM 38.3°F3.5°C 36.5°F2.5°C 93% 4.7 mph WNW7.6 kmh WNW 12.2 mph19.6 kmh 29.27 in991.2 mb 0.00 in0.0 mm 0.00 in0.0 mm 0.09 in2.3 mm
06:13 AM 38.3°F3.5°C 36.5°F2.5°C 93% 5.4 mph WNW8.7 kmh WNW 12.2 mph19.6 kmh 29.27 in991.2 mb 0.00 in0.0 mm 0.00 in0.0 mm 0.09 in2.3 mm
06:14 AM 38.3°F3.5°C 36.5°F2.5°C 93% 5.8 mph WNW9.3 kmh WNW 12.2 mph19.6 kmh 29.27 in991.2 mb 0.00 in0.0 mm 0.00 in0.0 mm 0.09 in2.3 mm
06:15 AM 38.3°F3.5°C 36.5°F2.5°C 93% 6.5 mph WNW10.5 kmh WNW 12.2 mph19.6 kmh 29.27 in991.2 mb 0.00 in0.0 mm 0.00 in0.0 mm 0.09 in2.3 mm
06:16 AM 38.3°F3.5°C 36.5°F2.5°C 93% 6.0 mph WNW9.7 kmh WNW 11.8 mph19.0 kmh 29.27 in991.2 mb 0.00 in0.0 mm 0.00 in0.0 mm 0.09 in2.3 mm
06:17 AM 38.3°F3.5°C 36.5°F2.5°C 93% 5.4 mph WNW8.7 kmh WNW 11.8 mph19.0 kmh 29.27 in991.2 mb 0.00 in0.0 mm 0.00 in0.0 mm 0.09 in2.3 mm
06:18 AM 38.3°F3.5°C 36.5°F2.5°C 93% 5.2 mph WNW8.4 kmh WNW 11.8 mph19.0 kmh 29.27 in991.2 mb 0.00 in0.0 mm 0.00 in0.0 mm 0.09 in2.3 mm
06:19 AM 38.3°F3.5°C 36.5°F2.5°C 93% 5.3 mph W8.5 kmh W 11.8 mph19.0 kmh 29.27 in991.2 mb 0.00 in0.0 mm 0.00 in0.0 mm 0.09 in2.3 mm
06:20 AM 38.3°F3.5°C 36.5°F2.5°C 93% 5.2 mph W8.4 kmh W 11.8 mph19.0 kmh 29.27 in991.2 mb 0.00 in0.0 mm 0.00 in0.0 mm 0.09 in2.3 mm
06:21 AM 38.3°F3.5°C 36.5°F2.5°C 93% 4.9 mph W7.9 kmh W 11.8 mph19.0 kmh 29.27 in991.2 mb 0.00 in0.0 mm 0.00 in0.0 mm 0.09 in2.3 mm
06:22 AM 38.3°F3.5°C 36.5°F2.5°C 93% 4.0 mph W6.4 kmh W 11.8 mph19.0 kmh 29.27 in991.2 mb 0.00 in0.0 mm 0.00 in0.0 mm 0.09 in2.3 mm
06:23 AM 38.3°F3.5°C 36.5°F2.5°C 93% 3.3 mph W5.3 kmh W 11.8 mph19.0 kmh 29.27 in991.2 mb 0.00 in0.0 mm 0.00 in0.0 mm 0.09 in2.3 mm
06:24 AM 38.3°F3.5°C 36.5°F2.5°C 93% 2.9 mph W4.7 kmh W 11.8 mph19.0 kmh 29.27 in991.2 mb 0.00 in0.0 mm 0.00 in0.0 mm 0.09 in2.3 mm
06:25 AM 38.3°F3.5°C 36.5°F2.5°C 93% 1.9 mph W3.1 kmh W 5.7 mph9.2 kmh 29.27 in991.2 mb 0.00 in0.0 mm 0.00 in0.0 mm 0.09 in2.3 mm
06:26 AM 38.1°F3.4°C 36.3°F2.4°C 93% 1.5 mph W2.4 kmh W 5.7 mph9.2 kmh 29.27 in991.2 mb 0.00 in0.0 mm 0.00 in0.0 mm 0.09 in2.3 mm
06:27 AM 38.3°F3.5°C 36.5°F2.5°C 93% 1.3 mph W2.1 kmh W 5.7 mph9.2 kmh 29.27 in991.2 mb 0.00 in0.0 mm 0.00 in0.0 mm 0.09 in2.3 mm
06:28 AM 38.3°F3.5°C 36.5°F2.5°C 93% 1.5 mph W2.4 kmh W 5.7 mph9.2 kmh 29.27 in991.2 mb 0.00 in0.0 mm 0.00 in0.0 mm 0.09 in2.3 mm
06:29 AM 38.3°F3.5°C 36.5°F2.5°C 93% 1.0 mph W1.6 kmh W 5.4 mph8.7 kmh 29.27 in991.2 mb 0.00 in0.0 mm 0.00 in0.0 mm 0.09 in2.3 mm
06:30 AM 38.3°F3.5°C 36.5°F2.5°C 93% 1.1 mph W1.8 kmh W 6.8 mph10.9 kmh 29.27 in991.2 mb 0.00 in0.0 mm 0.00 in0.0 mm 0.09 in2.3 mm
06:31 AM 38.3°F3.5°C 36.5°F2.5°C 93% 1.4 mph W2.3 kmh W 6.8 mph10.9 kmh 29.27 in991.2 mb 0.00 in0.0 mm 0.00 in0.0 mm 0.09 in2.3 mm
06:32 AM 38.3°F3.5°C 36.5°F2.5°C 93% 1.8 mph W2.9 kmh W 6.8 mph10.9 kmh 29.27 in991.2 mb 0.00 in0.0 mm 0.00 in0.0 mm 0.09 in2.3 mm
06:33 AM 38.3°F3.5°C 36.5°F2.5°C 93% 2.2 mph W3.5 kmh W 6.8 mph10.9 kmh 29.27 in991.2 mb 0.00 in0.0 mm 0.00 in0.0 mm 0.09 in2.3 mm
06:34 AM 38.3°F3.5°C 36.5°F2.5°C 93% 2.0 mph W3.2 kmh W 6.8 mph10.9 kmh 29.27 in991.2 mb 0.00 in0.0 mm 0.00 in0.0 mm 0.09 in2.3 mm
06:35 AM 38.3°F3.5°C 36.5°F2.5°C 93% 2.2 mph W3.5 kmh W 6.8 mph10.9 kmh 29.27 in991.2 mb 0.00 in0.0 mm 0.00 in0.0 mm 0.09 in2.3 mm
06:36 AM 38.3°F3.5°C 36.5°F2.5°C 93% 2.5 mph W4.0 kmh W 6.8 mph10.9 kmh 29.27 in991.2 mb 0.00 in0.0 mm 0.00 in0.0 mm 0.09 in2.3 mm
06:37 AM 38.3°F3.5°C 36.5°F2.5°C 93% 2.3 mph W3.7 kmh W 6.8 mph10.9 kmh 29.27 in991.2 mb 0.00 in0.0 mm 0.00 in0.0 mm 0.09 in2.3 mm
06:38 AM 38.1°F3.4°C 36.3°F2.4°C 93% 2.1 mph W3.4 kmh W 6.8 mph10.9 kmh 29.27 in991.2 mb 0.00 in0.0 mm 0.00 in0.0 mm 0.09 in2.3 mm
06:39 AM 38.1°F3.4°C 36.3°F2.4°C 93% 2.1 mph W3.4 kmh W 6.8 mph10.9 kmh 29.27 in991.2 mb 0.00 in0.0 mm 0.00 in0.0 mm 0.09 in2.3 mm
06:40 AM 38.1°F3.4°C 36.3°F2.4°C 93% 2.3 mph W3.7 kmh W 9.7 mph15.6 kmh 29.27 in991.2 mb 0.00 in0.0 mm 0.00 in0.0 mm 0.09 in2.3 mm
06:41 AM 38.1°F3.4°C 36.3°F2.4°C 93% 2.3 mph W3.7 kmh W 9.7 mph15.6 kmh 29.27 in991.2 mb 0.00 in0.0 mm 0.00 in0.0 mm 0.09 in2.3 mm
06:42 AM 38.1°F3.4°C 36.3°F2.4°C 93% 2.1 mph W3.4 kmh W 9.7 mph15.6 kmh 29.27 in991.2 mb 0.00 in0.0 mm 0.00 in0.0 mm 0.09 in2.3 mm
06:43 AM 38.1°F3.4°C 36.3°F2.4°C 93% 2.1 mph W3.4 kmh W 9.7 mph15.6 kmh 29.27 in991.2 mb 0.00 in0.0 mm 0.00 in0.0 mm 0.09 in2.3 mm
06:44 AM 38.1°F3.4°C 36.3°F2.4°C 93% 2.2 mph W3.5 kmh W 9.7 mph15.6 kmh 29.27 in991.2 mb 0.00 in0.0 mm 0.00 in0.0 mm 0.09 in2.3 mm
06:45 AM 38.1°F3.4°C 36.3°F2.4°C 93% 2.2 mph W3.5 kmh W 9.7 mph15.6 kmh 29.27 in991.2 mb 0.00 in0.0 mm 0.00 in0.0 mm 0.09 in2.3 mm
06:46 AM 38.1°F3.4°C 36.3°F2.4°C 93% 1.9 mph W3.1 kmh W 9.7 mph15.6 kmh 29.27 in991.2 mb 0.00 in0.0 mm 0.00 in0.0 mm 0.09 in2.3 mm
06:47 AM 38.1°F3.4°C 36.3°F2.4°C 93% 1.9 mph W3.1 kmh W 9.7 mph15.6 kmh 29.27 in991.2 mb 0.00 in0.0 mm 0.00 in0.0 mm 0.09 in2.3 mm
06:48 AM 38.1°F3.4°C 36.3°F2.4°C 93% 1.9 mph W3.1 kmh W 9.7 mph15.6 kmh 29.27 in991.2 mb 0.00 in0.0 mm 0.00 in0.0 mm 0.09 in2.3 mm
06:49 AM 38.1°F3.4°C 36.3°F2.4°C 93% 2.5 mph W4.0 kmh W 9.7 mph15.6 kmh 29.27 in991.2 mb 0.00 in0.0 mm 0.00 in0.0 mm 0.09 in2.3 mm
06:50 AM 38.1°F3.4°C 36.3°F2.4°C 93% 2.7 mph W4.3 kmh W 9.7 mph15.6 kmh 29.27 in991.2 mb 0.00 in0.0 mm 0.00 in0.0 mm 0.09 in2.3 mm
06:51 AM 38.1°F3.4°C 36.3°F2.4°C 93% 1.9 mph W3.1 kmh W 7.5 mph12.1 kmh 29.27 in991.2 mb 0.00 in0.0 mm 0.00 in0.0 mm 0.09 in2.3 mm
06:52 AM 38.1°F3.4°C 36.3°F2.4°C 93% 1.7 mph W2.7 kmh W 7.5 mph12.1 kmh 29.27 in991.2 mb 0.00 in0.0 mm 0.00 in0.0 mm 0.09 in2.3 mm
06:53 AM 38.1°F3.4°C 36.3°F2.4°C 93% 1.7 mph W2.7 kmh W 7.5 mph12.1 kmh 29.27 in991.2 mb 0.00 in0.0 mm 0.00 in0.0 mm 0.09 in2.3 mm
06:54 AM 38.1°F3.4°C 36.3°F2.4°C 93% 1.9 mph W3.1 kmh W 7.5 mph12.1 kmh 29.27 in991.2 mb 0.00 in0.0 mm 0.00 in0.0 mm 0.09 in2.3 mm
06:55 AM 38.1°F3.4°C 36.3°F2.4°C 93% 1.9 mph W3.1 kmh W 7.5 mph12.1 kmh 29.27 in991.2 mb 0.00 in0.0 mm 0.00 in0.0 mm 0.09 in2.3 mm
06:56 AM 38.1°F3.4°C 36.3°F2.4°C 93% 2.4 mph W3.9 kmh W 7.5 mph12.1 kmh 29.27 in991.2 mb 0.00 in0.0 mm 0.00 in0.0 mm 0.09 in2.3 mm
06:57 AM 38.1°F3.4°C 36.3°F2.4°C 93% 3.1 mph W5.0 kmh W 8.6 mph13.8 kmh 29.27 in991.2 mb 0.00 in0.0 mm 0.00 in0.0 mm 0.09 in2.3 mm
06:58 AM 38.1°F3.4°C 36.3°F2.4°C 93% 3.6 mph W5.8 kmh W 8.6 mph13.8 kmh 29.27 in991.2 mb 0.00 in0.0 mm 0.00 in0.0 mm 0.09 in2.3 mm
06:59 AM 38.1°F3.4°C 36.3°F2.4°C 93% 3.8 mph W6.1 kmh W 10.4 mph16.7 kmh 29.27 in991.2 mb 0.00 in0.0 mm 0.00 in0.0 mm 0.09 in2.3 mm
07:00 AM 37.9°F3.3°C 36.1°F2.3°C 93% 4.2 mph W6.8 kmh W 10.4 mph16.7 kmh 29.27 in991.2 mb 0.00 in0.0 mm 0.00 in0.0 mm 0.09 in2.3 mm
07:01 AM 37.9°F3.3°C 36.1°F2.3°C 93% 4.5 mph W7.2 kmh W 10.4 mph16.7 kmh 29.27 in991.2 mb 0.00 in0.0 mm 0.00 in0.0 mm 0.09 in2.3 mm
07:02 AM 37.9°F3.3°C 35.8°F2.1°C 92% 5.0 mph W8.0 kmh W 10.4 mph16.7 kmh 29.27 in991.2 mb 0.00 in0.0 mm 0.00 in0.0 mm 0.09 in2.3 mm
07:03 AM 38.1°F3.4°C 36.0°F2.2°C 92% 5.1 mph W8.2 kmh W 10.4 mph16.7 kmh 29.27 in991.2 mb 0.00 in0.0 mm 0.00 in0.0 mm 0.09 in2.3 mm
07:04 AM 38.1°F3.4°C 36.0°F2.2°C 92% 4.9 mph W7.9 kmh W 10.4 mph16.7 kmh 29.27 in991.2 mb 0.00 in0.0 mm 0.00 in0.0 mm 0.09 in2.3 mm
07:05 AM 38.1°F3.4°C 36.0°F2.2°C 92% 4.9 mph W7.9 kmh W 10.4 mph16.7 kmh 29.27 in991.2 mb 0.00 in0.0 mm 0.00 in0.0 mm 0.09 in2.3 mm
07:06 AM 38.1°F3.4°C 36.0°F2.2°C 92% 4.4 mph W7.1 kmh W 10.4 mph16.7 kmh 29.27 in991.2 mb 0.00 in0.0 mm 0.00 in0.0 mm 0.09 in2.3 mm
07:07 AM 38.1°F3.4°C 36.0°F2.2°C 92% 3.6 mph W5.8 kmh W 10.4 mph16.7 kmh 29.30 in992.2 mb 0.00 in0.0 mm 0.00 in0.0 mm 0.09 in2.3 mm
07:08 AM 38.1°F3.4°C 36.0°F2.2°C 92% 3.1 mph W5.0 kmh W 10.4 mph16.7 kmh 29.30 in992.2 mb 0.00 in0.0 mm 0.00 in0.0 mm 0.09 in2.3 mm
07:09 AM 38.1°F3.4°C 36.0°F2.2°C 92% 2.3 mph W3.7 kmh W 9.3 mph15.0 kmh 29.30 in992.2 mb 0.00 in0.0 mm 0.00 in0.0 mm 0.09 in2.3 mm
07:10 AM 38.1°F3.4°C 36.0°F2.2°C 92% 1.9 mph W3.1 kmh W 6.8 mph10.9 kmh 29.30 in992.2 mb 0.00 in0.0 mm 0.00 in0.0 mm 0.09 in2.3 mm
07:11 AM 38.1°F3.4°C 36.0°F2.2°C 92% 1.9 mph W3.1 kmh W 6.8 mph10.9 kmh 29.30 in992.2 mb 0.00 in0.0 mm 0.00 in0.0 mm 0.09 in2.3 mm
07:12 AM 38.1°F3.4°C 36.0°F2.2°C 92% 1.4 mph WNW2.3 kmh WNW 6.8 mph10.9 kmh 29.30 in992.2 mb 0.00 in0.0 mm 0.00 in0.0 mm 0.09 in2.3 mm
07:13 AM 38.1°F3.4°C 36.0°F2.2°C 92% 0.8 mph NW1.3 kmh NW 5.7 mph9.2 kmh 29.30 in992.2 mb 0.00 in0.0 mm 0.00 in0.0 mm 0.09 in2.3 mm
07:14 AM 38.1°F3.4°C 36.0°F2.2°C 92% 0.8 mph NW1.3 kmh NW 5.7 mph9.2 kmh 29.30 in992.2 mb 0.00 in0.0 mm 0.00 in0.0 mm 0.09 in2.3 mm
07:15 AM 38.1°F3.4°C 36.0°F2.2°C 92% 0.8 mph NW1.3 kmh NW 5.7 mph9.2 kmh 29.30 in992.2 mb 0.00 in0.0 mm 0.00 in0.0 mm 0.09 in2.3 mm
07:16 AM 38.1°F3.4°C 36.0°F2.2°C 92% 1.0 mph NW1.6 kmh NW 5.7 mph9.2 kmh 29.30 in992.2 mb 0.00 in0.0 mm 0.00 in0.0 mm 0.09 in2.3 mm
07:17 AM 38.1°F3.4°C 36.0°F2.2°C 92% 1.0 mph NW1.6 kmh NW 5.7 mph9.2 kmh 29.30 in992.2 mb 0.00 in0.0 mm 0.00 in0.0 mm 0.09 in2.3 mm
07:18 AM 38.3°F3.5°C 36.2°F2.3°C 92% 1.0 mph NW1.6 kmh NW 5.7 mph9.2 kmh 29.30 in992.2 mb 0.00 in0.0 mm 0.00 in0.0 mm 0.09 in2.3 mm
07:19 AM 38.3°F3.5°C 36.2°F2.3°C 92% 0.9 mph NW1.4 kmh NW 5.7 mph9.2 kmh 29.30 in992.2 mb 0.00 in0.0 mm 0.00 in0.0 mm 0.09 in2.3 mm
07:20 AM 38.3°F3.5°C 36.2°F2.3°C 92% 0.7 mph WNW1.1 kmh WNW 5.7 mph9.2 kmh 29.30 in992.2 mb 0.00 in0.0 mm 0.00 in0.0 mm 0.09 in2.3 mm
07:21 AM 38.3°F3.5°C 36.2°F2.3°C 92% 0.2 mph NW0.3 kmh NW 2.5 mph4.0 kmh 29.30 in992.2 mb 0.00 in0.0 mm 0.00 in0.0 mm 0.09 in2.3 mm
07:22 AM 38.3°F3.5°C 36.2°F2.3°C 92% 0.2 mph NW0.3 kmh NW 2.5 mph4.0 kmh 29.30 in992.2 mb 0.00 in0.0 mm 0.00 in0.0 mm 0.09 in2.3 mm
07:23 AM 38.3°F3.5°C 36.2°F2.3°C 92% 0.2 mph NW0.3 kmh NW 2.5 mph4.0 kmh 29.30 in992.2 mb 0.00 in0.0 mm 0.00 in0.0 mm 0.09 in2.3 mm
07:24 AM 38.3°F3.5°C 36.2°F2.3°C 92% 0.2 mph NW0.3 kmh NW 2.5 mph4.0 kmh 29.30 in992.2 mb 0.00 in0.0 mm 0.00 in0.0 mm 0.09 in2.3 mm
07:25 AM 38.3°F3.5°C 36.2°F2.3°C 92% 0.2 mph NW0.3 kmh NW 2.5 mph4.0 kmh 29.30 in992.2 mb 0.00 in0.0 mm 0.00 in0.0 mm 0.09 in2.3 mm
07:26 AM 38.3°F3.5°C 36.2°F2.3°C 92% Calm Calm -- 29.30 in992.2 mb 0.00 in0.0 mm 0.00 in0.0 mm 0.09 in2.3 mm
07:27 AM 38.3°F3.5°C 36.2°F2.3°C 92% Calm Calm -- 29.30 in992.2 mb 0.00 in0.0 mm 0.00 in0.0 mm 0.09 in2.3 mm
07:28 AM 38.3°F3.5°C 36.2°F2.3°C 92% Calm Calm -- 29.30 in992.2 mb 0.00 in0.0 mm 0.00 in0.0 mm 0.09 in2.3 mm
07:29 AM 38.5°F3.6°C 36.4°F2.4°C 92% Calm Calm -- 29.30 in992.2 mb 0.00 in0.0 mm 0.00 in0.0 mm 0.09 in2.3 mm
07:30 AM 38.5°F3.6°C 36.4°F2.4°C 92% Calm Calm -- 29.30 in992.2 mb 0.00 in0.0 mm 0.00 in0.0 mm 0.09 in2.3 mm
07:31 AM 38.5°F3.6°C 36.4°F2.4°C 92% Calm Calm -- 29.30 in992.2 mb 0.00 in0.0 mm 0.00 in0.0 mm 0.09 in2.3 mm
07:32 AM 38.5°F3.6°C 36.4°F2.4°C 92% Calm Calm -- 29.30 in992.2 mb 0.00 in0.0 mm 0.00 in0.0 mm 0.09 in2.3 mm
07:33 AM 38.5°F3.6°C 36.4°F2.4°C 92% Calm Calm -- 29.30 in992.2 mb 0.00 in0.0 mm 0.00 in0.0 mm 0.09 in2.3 mm
07:34 AM 38.5°F3.6°C 36.4°F2.4°C 92% Calm Calm -- 29.30 in992.2 mb 0.00 in0.0 mm 0.00 in0.0 mm 0.09 in2.3 mm
07:35 AM 38.5°F3.6°C 36.4°F2.4°C 92% Calm Calm -- 29.30 in992.2 mb 0.00 in0.0 mm 0.00 in0.0 mm 0.09 in2.3 mm
07:36 AM 38.7°F3.7°C 36.5°F2.5°C 92% Calm Calm -- 29.30 in992.2 mb 0.00 in0.0 mm 0.00 in0.0 mm 0.09 in2.3 mm
07:37 AM 38.7°F3.7°C 36.5°F2.5°C 92% Calm Calm -- 29.30 in992.2 mb 0.00 in0.0 mm 0.00 in0.0 mm 0.09 in2.3 mm
07:38 AM 38.7°F3.7°C 36.5°F2.5°C 92% Calm Calm -- 29.30 in992.2 mb 0.00 in0.0 mm 0.00 in0.0 mm 0.09 in2.3 mm
07:39 AM 38.7°F3.7°C 36.5°F2.5°C 92% Calm Calm -- 29.30 in992.2 mb 0.00 in0.0 mm 0.00 in0.0 mm 0.09 in2.3 mm
07:40 AM 38.7°F3.7°C 36.5°F2.5°C 92% Calm Calm -- 29.30 in992.2 mb 0.00 in0.0 mm 0.00 in0.0 mm 0.09 in2.3 mm
07:41 AM 38.7°F3.7°C 36.5°F2.5°C 92% Calm Calm -- 29.30 in992.2 mb 0.00 in0.0 mm 0.00 in0.0 mm 0.09 in2.3 mm
07:42 AM 38.7°F3.7°C 36.5°F2.5°C 92% Calm Calm -- 29.30 in992.2 mb 0.00 in0.0 mm 0.00 in0.0 mm 0.09 in2.3 mm
07:43 AM 38.7°F3.7°C 36.5°F2.5°C 92% Calm Calm -- 29.30 in992.2 mb 0.00 in0.0 mm 0.00 in0.0 mm 0.09 in2.3 mm
07:44 AM 38.8°F3.8°C 36.7°F2.6°C 92% Calm Calm -- 29.30 in992.2 mb 0.00 in0.0 mm 0.00 in0.0 mm 0.09 in2.3 mm
07:45 AM 38.8°F3.8°C 36.7°F2.6°C 92% Calm Calm -- 29.30 in992.2 mb 0.00 in0.0 mm 0.00 in0.0 mm 0.09 in2.3 mm
07:46 AM 38.8°F3.8°C 36.7°F2.6°C 92% Calm Calm -- 29.30 in992.2 mb 0.00 in0.0 mm 0.00 in0.0 mm 0.09 in2.3 mm
07:47 AM 38.8°F3.8°C 36.7°F2.6°C 92% Calm Calm -- 29.30 in992.2 mb 0.00 in0.0 mm 0.00 in0.0 mm 0.09 in2.3 mm
07:48 AM 38.8°F3.8°C 36.7°F2.6°C 92% Calm Calm -- 29.30 in992.2 mb 0.00 in0.0 mm 0.00 in0.0 mm 0.09 in2.3 mm
07:49 AM 38.8°F3.8°C 36.7°F2.6°C 92% Calm Calm -- 29.30 in992.2 mb 0.00 in0.0 mm 0.00 in0.0 mm 0.09 in2.3 mm
07:50 AM 38.8°F3.8°C 36.7°F2.6°C 92% 0.2 mph W0.3 kmh W 2.1 mph3.4 kmh 29.30 in992.2 mb 0.00 in0.0 mm 0.00 in0.0 mm 0.09 in2.3 mm
07:51 AM 38.8°F3.8°C 36.7°F2.6°C 92% 0.2 mph W0.3 kmh W 2.1 mph3.4 kmh 29.30 in992.2 mb 0.00 in0.0 mm 0.00 in0.0 mm 0.09 in2.3 mm
07:52 AM 38.8°F3.8°C 36.7°F2.6°C 92% 0.2 mph W0.3 kmh W 2.1 mph3.4 kmh 29.30 in992.2 mb 0.00 in0.0 mm 0.00 in0.0 mm 0.09 in2.3 mm
07:53 AM 39.0°F3.9°C 36.9°F2.7°C 92% 0.2 mph W0.3 kmh W 2.1 mph3.4 kmh 29.30 in992.2 mb 0.00 in0.0 mm 0.00 in0.0 mm 0.09 in2.3 mm
07:54 AM 39.0°F3.9°C 36.9°F2.7°C 92% 0.2 mph W0.3 kmh W 2.1 mph3.4 kmh 29.30 in992.2 mb 0.00 in0.0 mm 0.00 in0.0 mm 0.09 in2.3 mm
08:00 AM 39.2°F4.0°C 37.1°F2.8°C 92% 1.8 mph W2.9 kmh W 6.8 mph10.9 kmh 29.30 in992.2 mb 0.00 in0.0 mm 0.00 in0.0 mm 0.09 in2.3 mm
08:15 AM 39.9°F4.4°C 37.8°F3.2°C 92% 5.4 mph W8.7 kmh W 15.4 mph24.8 kmh 29.27 in991.2 mb 0.00 in0.0 mm 0.00 in0.0 mm 0.09 in2.3 mm
08:30 AM 41.0°F5.0°C 38.9°F3.8°C 92% 5.4 mph W8.7 kmh W 12.5 mph20.1 kmh 29.27 in991.2 mb 0.00 in0.0 mm 0.00 in0.0 mm 0.09 in2.3 mm
08:45 AM 41.7°F5.4°C 39.3°F4.1°C 91% 3.2 mph W5.1 kmh W 11.5 mph18.5 kmh 29.30 in992.2 mb 0.00 in0.0 mm 0.00 in0.0 mm 0.09 in2.3 mm
09:00 AM 42.1°F5.6°C 39.4°F4.1°C 90% 4.7 mph W7.6 kmh W 9.3 mph15.0 kmh 29.30 in992.2 mb 0.00 in0.0 mm 0.00 in0.0 mm 0.09 in2.3 mm
09:15 AM 41.5°F5.3°C 38.3°F3.5°C 88% 5.9 mph SW9.5 kmh SW 12.9 mph20.8 kmh 29.30 in992.2 mb 0.00 in0.0 mm 0.00 in0.0 mm 0.09 in2.3 mm
09:30 AM 41.9°F5.5°C 38.9°F3.8°C 89% 7.1 mph SW11.4 kmh SW 15.0 mph24.1 kmh 29.30 in992.2 mb 0.00 in0.0 mm 0.00 in0.0 mm 0.09 in2.3 mm
09:45 AM 42.4°F5.8°C 39.4°F4.1°C 89% 8.0 mph WSW12.9 kmh WSW 12.9 mph20.8 kmh 29.30 in992.2 mb 0.00 in0.0 mm 0.00 in0.0 mm 0.09 in2.3 mm
10:00 AM 42.4°F5.8°C 38.8°F3.8°C 87% 8.4 mph WSW13.5 kmh WSW 15.4 mph24.8 kmh 29.27 in991.2 mb 0.00 in0.0 mm 0.00 in0.0 mm 0.09 in2.3 mm
10:15 AM 42.8°F6.0°C 39.2°F4.0°C 87% 8.3 mph SW13.4 kmh SW 19.7 mph31.7 kmh 29.27 in991.2 mb 0.00 in0.0 mm 0.00 in0.0 mm 0.09 in2.3 mm
10:30 AM 43.2°F6.2°C 39.3°F4.1°C 86% 10.0 mph WSW16.1 kmh WSW 20.0 mph32.2 kmh 29.27 in991.2 mb 0.00 in0.0 mm 0.00 in0.0 mm 0.09 in2.3 mm
10:45 AM 43.5°F6.4°C 39.3°F4.1°C 85% 10.4 mph WSW16.7 kmh WSW 21.5 mph34.6 kmh 29.24 in990.2 mb 0.00 in0.0 mm 0.00 in0.0 mm 0.09 in2.3 mm
11:00 AM 43.9°F6.6°C 40.0°F4.4°C 86% 10.3 mph WSW16.6 kmh WSW 20.8 mph33.5 kmh 29.24 in990.2 mb 0.00 in0.0 mm 0.00 in0.0 mm 0.09 in2.3 mm
11:15 AM 43.9°F6.6°C 39.7°F4.3°C 85% 9.2 mph SSW14.8 kmh SSW 20.4 mph32.8 kmh 29.21 in989.2 mb 0.00 in0.0 mm 0.00 in0.0 mm 0.09 in2.3 mm
11:30 AM 43.9°F6.6°C 40.0°F4.4°C 86% 8.7 mph SSW14.0 kmh SSW 16.8 mph27.0 kmh 29.24 in990.2 mb 0.00 in0.0 mm 0.00 in0.0 mm 0.09 in2.3 mm
11:45 AM 43.5°F6.4°C 39.6°F4.2°C 86% 8.2 mph S13.2 kmh S 17.2 mph27.7 kmh 29.24 in990.2 mb 0.00 in0.0 mm 0.00 in0.0 mm 0.09 in2.3 mm
12:00 PM 43.5°F6.4°C 39.6°F4.2°C 86% 10.1 mph SSW16.3 kmh SSW 23.6 mph38.0 kmh 29.24 in990.2 mb 0.00 in0.0 mm 0.00 in0.0 mm 0.09 in2.3 mm
12:15 PM 44.4°F6.9°C 40.8°F4.9°C 87% 8.4 mph S13.5 kmh S 17.2 mph27.7 kmh 29.24 in990.2 mb 0.00 in0.0 mm 0.00 in0.0 mm 0.09 in2.3 mm
12:30 PM 45.9°F7.7°C 41.9°F5.5°C 86% 9.2 mph SW14.8 kmh SW 23.3 mph37.5 kmh 29.21 in989.2 mb 0.00 in0.0 mm 0.00 in0.0 mm 0.09 in2.3 mm
12:45 PM 45.5°F7.5°C 40.3°F4.6°C 82% 8.2 mph SW13.2 kmh SW 16.5 mph26.6 kmh 29.21 in989.2 mb 0.00 in0.0 mm 0.00 in0.0 mm 0.09 in2.3 mm
01:00 PM 45.0°F7.2°C 39.5°F4.2°C 81% 11.7 mph SSW18.8 kmh SSW 27.9 mph44.9 kmh 29.21 in989.2 mb 0.00 in0.0 mm 0.00 in0.0 mm 0.09 in2.3 mm
01:15 PM 45.1°F7.3°C 40.0°F4.4°C 82% 7.7 mph S12.4 kmh S 20.0 mph32.2 kmh 29.21 in989.2 mb 0.00 in0.0 mm 0.00 in0.0 mm 0.09 in2.3 mm
01:30 PM 44.6°F7.0°C 39.1°F3.9°C 81% 7.9 mph SSW12.7 kmh SSW 16.8 mph27.0 kmh 29.21 in989.2 mb 0.00 in0.0 mm 0.00 in0.0 mm 0.09 in2.3 mm
01:45 PM 44.4°F6.9°C 39.0°F3.9°C 81% 7.2 mph SW11.6 kmh SW 15.0 mph24.1 kmh 29.18 in988.1 mb 0.00 in0.0 mm 0.00 in0.0 mm 0.09 in2.3 mm
02:00 PM 43.9°F6.6°C 38.7°F3.7°C 82% 7.1 mph S11.4 kmh S 15.4 mph24.8 kmh 29.18 in988.1 mb 0.00 in0.0 mm 0.00 in0.0 mm 0.09 in2.3 mm
02:15 PM 44.1°F6.7°C 38.9°F3.8°C 82% 6.5 mph S10.5 kmh S 13.6 mph21.9 kmh 29.15 in987.1 mb 0.00 in0.0 mm 0.00 in0.0 mm 0.09 in2.3 mm
02:30 PM 44.2°F6.8°C 38.8°F3.8°C 81% 7.7 mph SSW12.4 kmh SSW 14.0 mph22.5 kmh 29.18 in988.1 mb 0.00 in0.0 mm 0.00 in0.0 mm 0.09 in2.3 mm
02:45 PM 43.9°F6.6°C 38.4°F3.6°C 81% 7.2 mph SSW11.6 kmh SSW 14.0 mph22.5 kmh 29.18 in988.1 mb 0.00 in0.0 mm 0.00 in0.0 mm 0.09 in2.3 mm
03:00 PM 42.8°F6.0°C 37.7°F3.2°C 82% 6.4 mph S10.3 kmh S 13.6 mph21.9 kmh 29.18 in988.1 mb 0.00 in0.0 mm 0.00 in0.0 mm 0.09 in2.3 mm
03:15 PM 42.1°F5.6°C 37.9°F3.3°C 85% 6.4 mph S10.3 kmh S 14.0 mph22.5 kmh 29.18 in988.1 mb 0.00 in0.0 mm 0.00 in0.0 mm 0.09 in2.3 mm
03:30 PM 41.7°F5.4°C 37.8°F3.2°C 86% 6.3 mph S10.1 kmh S 14.0 mph22.5 kmh 29.18 in988.1 mb 0.00 in0.0 mm 0.00 in0.0 mm 0.09 in2.3 mm
03:45 PM 41.5°F5.3°C 38.0°F3.3°C 87% 4.1 mph S6.6 kmh S 8.9 mph14.3 kmh 29.15 in987.1 mb 0.06 in1.5 mm 0.24 in6.1 mm 0.15 in3.8 mm
04:00 PM 41.5°F5.3°C 38.3°F3.5°C 88% 5.6 mph S9.0 kmh S 12.2 mph19.6 kmh 29.15 in987.1 mb 0.06 in1.5 mm 0.00 in0.0 mm 0.15 in3.8 mm
04:15 PM 41.5°F5.3°C 38.3°F3.5°C 88% 4.7 mph SSW7.6 kmh SSW 11.8 mph19.0 kmh 29.15 in987.1 mb 0.06 in1.5 mm 0.00 in0.0 mm 0.15 in3.8 mm
04:30 PM 41.2°F5.1°C 38.2°F3.4°C 89% 6.1 mph S9.8 kmh S 14.0 mph22.5 kmh 29.15 in987.1 mb 0.06 in1.5 mm 0.00 in0.0 mm 0.15 in3.8 mm
04:45 PM 41.0°F5.0°C 38.0°F3.3°C 89% 6.0 mph S9.7 kmh S 17.5 mph28.2 kmh 29.15 in987.1 mb 0.05 in1.3 mm 0.00 in0.0 mm 0.19 in4.8 mm
05:00 PM 41.0°F5.0°C 38.0°F3.3°C 89% 5.6 mph S9.0 kmh S 14.0 mph22.5 kmh 29.15 in987.1 mb 0.05 in1.3 mm 0.00 in0.0 mm 0.19 in4.8 mm
05:15 PM 40.8°F4.9°C 38.1°F3.4°C 90% 5.0 mph S8.0 kmh S 16.8 mph27.0 kmh 29.15 in987.1 mb 0.05 in1.3 mm 0.00 in0.0 mm 0.19 in4.8 mm
05:30 PM 40.6°F4.8°C 37.9°F3.3°C 90% 7.2 mph S11.6 kmh S 15.0 mph24.1 kmh 29.18 in988.1 mb 0.09 in2.3 mm 0.16 in4.1 mm 0.24 in6.1 mm
05:45 PM 40.6°F4.8°C 37.9°F3.3°C 90% 4.9 mph S7.9 kmh S 10.0 mph16.1 kmh 29.15 in987.1 mb 0.05 in1.3 mm 0.00 in0.0 mm 0.24 in6.1 mm
06:00 PM 40.5°F4.7°C 37.8°F3.2°C 90% 4.6 mph S7.4 kmh S 12.2 mph19.6 kmh 29.18 in988.1 mb 0.05 in1.3 mm 0.00 in0.0 mm 0.24 in6.1 mm
06:15 PM 40.5°F4.7°C 38.0°F3.3°C 91% 4.3 mph S6.9 kmh S 10.0 mph16.1 kmh 29.18 in988.1 mb 0.09 in2.3 mm 0.16 in4.1 mm 0.29 in7.4 mm
06:30 PM 40.5°F4.7°C 38.0°F3.3°C 91% 5.9 mph S9.5 kmh S 15.7 mph25.3 kmh 29.18 in988.1 mb 0.05 in1.3 mm 0.00 in0.0 mm 0.29 in7.4 mm
06:45 PM 40.5°F4.7°C 38.0°F3.3°C 91% 3.0 mph S4.8 kmh S 8.9 mph14.3 kmh 29.18 in988.1 mb 0.05 in1.3 mm 0.00 in0.0 mm 0.29 in7.4 mm
07:00 PM 40.5°F4.7°C 38.0°F3.3°C 91% 1.5 mph SSW2.4 kmh SSW 6.1 mph9.8 kmh 29.21 in989.2 mb 0.05 in1.3 mm 0.00 in0.0 mm 0.29 in7.4 mm
07:15 PM 40.5°F4.7°C 38.0°F3.3°C 91% 1.4 mph SSE2.3 kmh SSE 6.4 mph10.3 kmh 29.18 in988.1 mb 0.00 in0.0 mm 0.00 in0.0 mm 0.29 in7.4 mm
07:30 PM 40.5°F4.7°C 38.0°F3.3°C 91% 3.9 mph S6.3 kmh S 11.8 mph19.0 kmh 29.18 in988.1 mb 0.00 in0.0 mm 0.00 in0.0 mm 0.29 in7.4 mm
07:45 PM 40.5°F4.7°C 38.3°F3.5°C 92% 3.4 mph S5.5 kmh S 13.6 mph21.9 kmh 29.15 in987.1 mb 0.05 in1.3 mm 0.20 in5.1 mm 0.33 in8.4 mm
08:00 PM 40.3°F4.6°C 38.1°F3.4°C 92% 3.4 mph S5.5 kmh S 10.0 mph16.1 kmh 29.18 in988.1 mb 0.05 in1.3 mm 0.00 in0.0 mm 0.33 in8.4 mm
08:15 PM 40.3°F4.6°C 38.1°F3.4°C 92% 3.7 mph S6.0 kmh S 9.7 mph15.6 kmh 29.18 in988.1 mb 0.05 in1.3 mm 0.00 in0.0 mm 0.33 in8.4 mm
08:30 PM 40.3°F4.6°C 38.1°F3.4°C 92% 3.4 mph S5.5 kmh S 8.6 mph13.8 kmh 29.18 in988.1 mb 0.05 in1.3 mm 0.00 in0.0 mm 0.33 in8.4 mm
08:45 PM 40.3°F4.6°C 38.1°F3.4°C 92% 3.9 mph S6.3 kmh S 9.7 mph15.6 kmh 29.18 in988.1 mb 0.00 in0.0 mm 0.00 in0.0 mm 0.33 in8.4 mm
09:00 PM 40.3°F4.6°C 38.1°F3.4°C 92% 4.1 mph S6.6 kmh S 11.5 mph18.5 kmh 29.18 in988.1 mb 0.00 in0.0 mm 0.00 in0.0 mm 0.33 in8.4 mm
09:15 PM 40.3°F4.6°C 38.1°F3.4°C 92% 2.8 mph S4.5 kmh S 6.8 mph10.9 kmh 29.18 in988.1 mb 0.00 in0.0 mm 0.00 in0.0 mm 0.33 in8.4 mm
09:30 PM 40.1°F4.5°C 38.2°F3.4°C 93% 4.8 mph S7.7 kmh S 13.6 mph21.9 kmh 29.18 in988.1 mb 0.00 in0.0 mm 0.00 in0.0 mm 0.33 in8.4 mm
09:45 PM 40.1°F4.5°C 38.2°F3.4°C 93% 2.4 mph S3.9 kmh S 14.0 mph22.5 kmh 29.18 in988.1 mb 0.00 in0.0 mm 0.00 in0.0 mm 0.33 in8.4 mm
10:00 PM 40.1°F4.5°C 38.2°F3.4°C 93% 2.4 mph S3.9 kmh S 8.9 mph14.3 kmh 29.18 in988.1 mb 0.00 in0.0 mm 0.00 in0.0 mm 0.33 in8.4 mm
10:15 PM 40.1°F4.5°C 38.2°F3.4°C 93% 5.1 mph S8.2 kmh S 13.6 mph21.9 kmh 29.18 in988.1 mb 0.00 in0.0 mm 0.00 in0.0 mm 0.33 in8.4 mm
10:30 PM 39.9°F4.4°C 38.1°F3.4°C 93% 5.4 mph S8.7 kmh S 11.8 mph19.0 kmh 29.21 in989.2 mb 0.00 in0.0 mm 0.00 in0.0 mm 0.33 in8.4 mm
10:45 PM 39.9°F4.4°C 38.1°F3.4°C 93% 2.5 mph S4.0 kmh S 10.0 mph16.1 kmh 29.21 in989.2 mb 0.00 in0.0 mm 0.00 in0.0 mm 0.33 in8.4 mm
11:00 PM 39.9°F4.4°C 38.1°F3.4°C 93% 3.1 mph S5.0 kmh S 9.3 mph15.0 kmh 29.21 in989.2 mb 0.00 in0.0 mm 0.00 in0.0 mm 0.33 in8.4 mm
11:15 PM 39.9°F4.4°C 38.1°F3.4°C 93% 2.9 mph S4.7 kmh S 9.7 mph15.6 kmh 29.21 in989.2 mb 0.00 in0.0 mm 0.00 in0.0 mm 0.33 in8.4 mm
11:30 PM 39.9°F4.4°C 38.1°F3.4°C 93% 1.5 mph S2.4 kmh S 7.5 mph12.1 kmh 29.21 in989.2 mb 0.00 in0.0 mm 0.00 in0.0 mm 0.33 in8.4 mm
11:45 PM 39.9°F4.4°C 38.1°F3.4°C 93% 1.0 mph SSE1.6 kmh SSE 5.0 mph8.0 kmh 29.21 in989.2 mb 0.00 in0.0 mm 0.00 in0.0 mm 0.33 in8.4 mm